sensor_id;sensor_type;location;lat;lon;timestamp;pressure;altitude;pressure_sealevel;temperature;humidity
70127;BME280;57491;42.694;23.314;2023-01-10T00:02:11;94386.00;;;5.36;70.97
70127;BME280;57491;42.694;23.314;2023-01-10T00:04:37;94362.47;;;5.47;71.96
70127;BME280;57491;42.694;23.314;2023-01-10T00:07:04;94379.72;;;5.38;70.38
70127;BME280;57491;42.694;23.314;2023-01-10T00:09:31;94375.41;;;5.07;71.35
70127;BME280;57491;42.694;23.314;2023-01-10T00:11:58;94343.06;;;5.04;71.72
70127;BME280;57491;42.694;23.314;2023-01-10T00:14:43;94377.03;;;5.16;72.05
70127;BME280;57491;42.694;23.314;2023-01-10T00:17:11;94363.38;;;4.99;71.82
70127;BME280;57491;42.694;23.314;2023-01-10T00:19:38;94362.22;;;5.10;72.29
70127;BME280;57491;42.694;23.314;2023-01-10T00:22:05;94354.16;;;5.05;71.97
70127;BME280;57491;42.694;23.314;2023-01-10T00:24:46;94347.09;;;5.07;72.59
70127;BME280;57491;42.694;23.314;2023-01-10T00:27:13;94362.69;;;5.21;71.35
70127;BME280;57491;42.694;23.314;2023-01-10T00:29:41;94351.09;;;5.25;70.86
70127;BME280;57491;42.694;23.314;2023-01-10T00:32:09;94347.56;;;5.02;71.81
70127;BME280;57491;42.694;23.314;2023-01-10T00:34:37;94363.69;;;5.04;72.28
70127;BME280;57491;42.694;23.314;2023-01-10T00:37:04;94340.97;;;5.08;71.99
70127;BME280;57491;42.694;23.314;2023-01-10T00:39:31;94356.44;;;4.67;72.83
70127;BME280;57491;42.694;23.314;2023-01-10T00:41:58;94352.25;;;4.58;73.65
70127;BME280;57491;42.694;23.314;2023-01-10T00:44:42;94311.69;;;4.76;73.98
70127;BME280;57491;42.694;23.314;2023-01-10T00:47:11;94287.06;;;4.74;73.21
70127;BME280;57491;42.694;23.314;2023-01-10T00:49:40;94290.78;;;4.79;72.80
70127;BME280;57491;42.694;23.314;2023-01-10T00:52:07;94296.25;;;4.76;73.50
70127;BME280;57491;42.694;23.314;2023-01-10T00:54:34;94332.28;;;4.44;74.01
70127;BME280;57491;42.694;23.314;2023-01-10T00:57:01;94313.31;;;4.45;74.13
70127;BME280;57491;42.694;23.314;2023-01-10T00:59:28;94351.91;;;4.69;73.86
70127;BME280;57491;42.694;23.314;2023-01-10T01:01:55;94326.81;;;4.79;73.53
70127;BME280;57491;42.694;23.314;2023-01-10T01:04:22;94311.53;;;4.86;73.54
70127;BME280;57491;42.694;23.314;2023-01-10T01:06:51;94305.59;;;4.61;73.93
70127;BME280;57491;42.694;23.314;2023-01-10T01:09:18;94277.59;;;4.58;73.99
70127;BME280;57491;42.694;23.314;2023-01-10T01:11:45;94307.06;;;4.64;74.14
70127;BME280;57491;42.694;23.314;2023-01-10T01:14:12;94319.41;;;4.60;74.16
70127;BME280;57491;42.694;23.314;2023-01-10T01:16:39;94332.59;;;4.73;74.12
70127;BME280;57491;42.694;23.314;2023-01-10T01:19:06;94312.31;;;4.86;74.95
70127;BME280;57491;42.694;23.314;2023-01-10T01:21:33;94303.94;;;5.09;73.00
70127;BME280;57491;42.694;23.314;2023-01-10T01:24:02;94311.16;;;5.21;72.56
70127;BME280;57491;42.694;23.314;2023-01-10T01:26:29;94311.25;;;5.36;72.18
70127;BME280;57491;42.694;23.314;2023-01-10T01:28:56;94321.91;;;5.33;71.48
70127;BME280;57491;42.694;23.314;2023-01-10T01:31:24;94304.22;;;5.14;71.41
70127;BME280;57491;42.694;23.314;2023-01-10T01:33:51;94284.94;;;5.02;72.28
70127;BME280;57491;42.694;23.314;2023-01-10T01:36:18;94331.66;;;4.66;73.72
70127;BME280;57491;42.694;23.314;2023-01-10T01:38:45;94321.19;;;4.76;73.97
70127;BME280;57491;42.694;23.314;2023-01-10T01:41:13;94289.63;;;4.98;74.66
70127;BME280;57491;42.694;23.314;2023-01-10T01:44:00;94291.38;;;5.06;72.64
70127;BME280;57491;42.694;23.314;2023-01-10T01:46:28;94314.91;;;4.94;72.62
70127;BME280;57491;42.694;23.314;2023-01-10T01:48:59;94270.50;;;4.76;73.73
70127;BME280;57491;42.694;23.314;2023-01-10T01:51:27;94287.53;;;4.77;73.48
70127;BME280;57491;42.694;23.314;2023-01-10T01:54:00;94288.66;;;4.91;74.61
70127;BME280;57491;42.694;23.314;2023-01-10T01:56:33;94299.41;;;5.11;73.83
70127;BME280;57491;42.694;23.314;2023-01-10T01:59:06;94257.53;;;5.17;72.30
70127;BME280;57491;42.694;23.314;2023-01-10T02:01:37;94271.66;;;5.29;71.80
70127;BME280;57491;42.694;23.314;2023-01-10T02:04:09;94285.53;;;5.20;72.13
70127;BME280;57491;42.694;23.314;2023-01-10T02:06:38;94230.69;;;5.03;72.74
70127;BME280;57491;42.694;23.314;2023-01-10T02:09:11;94249.22;;;4.99;73.84
70127;BME280;57491;42.694;23.314;2023-01-10T02:11:43;94272.97;;;5.25;73.72
70127;BME280;57491;42.694;23.314;2023-01-10T02:14:11;94288.66;;;5.46;73.17
70127;BME280;57491;42.694;23.314;2023-01-10T02:16:40;94218.75;;;5.49;72.75
70127;BME280;57491;42.694;23.314;2023-01-10T02:19:13;94274.06;;;5.69;70.88
70127;BME280;57491;42.694;23.314;2023-01-10T02:22:03;94234.66;;;5.83;71.09
70127;BME280;57491;42.694;23.314;2023-01-10T02:25:01;94234.88;;;5.74;69.73
70127;BME280;57491;42.694;23.314;2023-01-10T02:27:44;94242.97;;;5.40;71.02
70127;BME280;57491;42.694;23.314;2023-01-10T02:30:40;94223.72;;;5.51;71.09
70127;BME280;57491;42.694;23.314;2023-01-10T02:33:18;94238.22;;;5.52;70.71
70127;BME280;57491;42.694;23.314;2023-01-10T02:36:07;94223.91;;;5.41;72.15
70127;BME280;57491;42.694;23.314;2023-01-10T02:38:47;94248.06;;;5.48;71.31
70127;BME280;57491;42.694;23.314;2023-01-10T02:41:23;94232.00;;;5.38;71.04
70127;BME280;57491;42.694;23.314;2023-01-10T02:43:56;94225.28;;;5.29;71.18
70127;BME280;57491;42.694;23.314;2023-01-10T02:46:28;94232.00;;;5.38;71.68
70127;BME280;57491;42.694;23.314;2023-01-10T02:48:57;94222.19;;;5.33;71.02
70127;BME280;57491;42.694;23.314;2023-01-10T02:51:26;94238.81;;;5.31;71.88
70127;BME280;57491;42.694;23.314;2023-01-10T02:53:56;94238.78;;;5.39;71.79
70127;BME280;57491;42.694;23.314;2023-01-10T02:56:52;94209.41;;;5.01;71.67
70127;BME280;57491;42.694;23.314;2023-01-10T02:59:49;94232.34;;;5.27;72.15
70127;BME280;57491;42.694;23.314;2023-01-10T03:02:42;94248.44;;;5.37;72.07
70127;BME280;57491;42.694;23.314;2023-01-10T03:05:20;94264.50;;;5.47;71.51
70127;BME280;57491;42.694;23.314;2023-01-10T03:07:54;94237.38;;;5.59;70.68
70127;BME280;57491;42.694;23.314;2023-01-10T03:10:29;94257.94;;;5.67;70.23
70127;BME280;57491;42.694;23.314;2023-01-10T03:13:02;94260.53;;;5.67;69.85
70127;BME280;57491;42.694;23.314;2023-01-10T03:15:33;94257.00;;;5.68;70.09
70127;BME280;57491;42.694;23.314;2023-01-10T03:18:03;94247.63;;;5.67;69.50
70127;BME280;57491;42.694;23.314;2023-01-10T03:20:36;94261.34;;;5.68;70.94
70127;BME280;57491;42.694;23.314;2023-01-10T03:23:05;94260.81;;;5.80;69.62
70127;BME280;57491;42.694;23.314;2023-01-10T03:25:35;94230.66;;;5.89;69.40
70127;BME280;57491;42.694;23.314;2023-01-10T03:28:06;94280.13;;;5.93;68.57
70127;BME280;57491;42.694;23.314;2023-01-10T03:30:39;94272.41;;;5.84;69.08
70127;BME280;57491;42.694;23.314;2023-01-10T03:33:09;94249.63;;;5.96;70.24
70127;BME280;57491;42.694;23.314;2023-01-10T03:35:49;94249.44;;;5.98;69.26
70127;BME280;57491;42.694;23.314;2023-01-10T03:38:22;94253.00;;;5.97;70.19
70127;BME280;57491;42.694;23.314;2023-01-10T03:40:55;94257.94;;;6.06;69.13
70127;BME280;57491;42.694;23.314;2023-01-10T03:43:29;94262.81;;;6.24;68.74
70127;BME280;57491;42.694;23.314;2023-01-10T03:46:29;94255.81;;;6.33;67.71
70127;BME280;57491;42.694;23.314;2023-01-10T03:48:59;94248.06;;;6.33;67.20
70127;BME280;57491;42.694;23.314;2023-01-10T03:51:30;94250.50;;;6.34;67.59
70127;BME280;57491;42.694;23.314;2023-01-10T03:53:59;94239.81;;;6.37;68.28
70127;BME280;57491;42.694;23.314;2023-01-10T03:56:26;94241.41;;;6.38;66.92
70127;BME280;57491;42.694;23.314;2023-01-10T03:58:53;94217.22;;;6.39;68.01
70127;BME280;57491;42.694;23.314;2023-01-10T04:01:20;94183.66;;;6.39;67.50
70127;BME280;57491;42.694;23.314;2023-01-10T04:03:48;94188.19;;;6.37;66.85
70127;BME280;57491;42.694;23.314;2023-01-10T04:06:15;94180.91;;;6.18;67.39
70127;BME280;57491;42.694;23.314;2023-01-10T04:08:44;94177.81;;;6.00;67.97
70127;BME280;57491;42.694;23.314;2023-01-10T04:11:11;94148.25;;;5.88;68.61
70127;BME280;57491;42.694;23.314;2023-01-10T04:13:38;94130.06;;;5.58;69.14
70127;BME280;57491;42.694;23.314;2023-01-10T04:16:07;94160.84;;;5.82;68.91
70127;BME280;57491;42.694;23.314;2023-01-10T04:18:35;94157.16;;;5.54;69.66
70127;BME280;57491;42.694;23.314;2023-01-10T04:21:03;94170.50;;;5.27;70.60
70127;BME280;57491;42.694;23.314;2023-01-10T04:23:30;94189.69;;;5.24;70.94
70127;BME280;57491;42.694;23.314;2023-01-10T04:25:59;94194.81;;;4.93;71.61
70127;BME280;57491;42.694;23.314;2023-01-10T04:28:26;94236.19;;;4.92;72.67
70127;BME280;57491;42.694;23.314;2023-01-10T04:30:53;94218.91;;;5.01;71.90
70127;BME280;57491;42.694;23.314;2023-01-10T04:33:20;94242.34;;;5.30;71.53
70127;BME280;57491;42.694;23.314;2023-01-10T04:35:47;94248.38;;;5.53;71.40
70127;BME280;57491;42.694;23.314;2023-01-10T04:38:14;94255.94;;;5.55;70.02
70127;BME280;57491;42.694;23.314;2023-01-10T04:40:42;94258.34;;;5.56;69.98
70127;BME280;57491;42.694;23.314;2023-01-10T04:43:10;94243.06;;;5.77;70.29
70127;BME280;57491;42.694;23.314;2023-01-10T04:45:38;94255.56;;;5.97;68.92
70127;BME280;57491;42.694;23.314;2023-01-10T04:48:05;94252.03;;;5.98;68.76
70127;BME280;57491;42.694;23.314;2023-01-10T04:50:32;94227.81;;;6.21;68.53
70127;BME280;57491;42.694;23.314;2023-01-10T04:52:59;94167.69;;;5.98;67.62
70127;BME280;57491;42.694;23.314;2023-01-10T04:55:26;94207.88;;;6.38;67.14
70127;BME280;57491;42.694;23.314;2023-01-10T04:57:53;94225.22;;;6.44;66.99
70127;BME280;57491;42.694;23.314;2023-01-10T05:00:21;94243.97;;;6.61;66.92
70127;BME280;57491;42.694;23.314;2023-01-10T05:02:54;94229.84;;;6.34;66.40
70127;BME280;57491;42.694;23.314;2023-01-10T05:05:21;94222.56;;;6.15;67.42
70127;BME280;57491;42.694;23.314;2023-01-10T05:07:48;94218.78;;;6.25;67.26
70127;BME280;57491;42.694;23.314;2023-01-10T05:10:16;94218.78;;;6.03;68.16
70127;BME280;57491;42.694;23.314;2023-01-10T05:12:44;94214.38;;;5.80;68.68
70127;BME280;57491;42.694;23.314;2023-01-10T05:15:11;94204.50;;;5.61;69.08
70127;BME280;57491;42.694;23.314;2023-01-10T05:17:40;94212.84;;;5.63;70.56
70127;BME280;57491;42.694;23.314;2023-01-10T05:20:08;94192.94;;;5.80;68.79
70127;BME280;57491;42.694;23.314;2023-01-10T05:22:35;94178.53;;;5.85;69.52
70127;BME280;57491;42.694;23.314;2023-01-10T05:25:03;94191.31;;;6.10;69.98
70127;BME280;57491;42.694;23.314;2023-01-10T05:27:30;94192.72;;;6.12;68.57
70127;BME280;57491;42.694;23.314;2023-01-10T05:29:57;94200.75;;;6.17;67.38
70127;BME280;57491;42.694;23.314;2023-01-10T05:32:27;94195.38;;;6.04;67.75
70127;BME280;57491;42.694;23.314;2023-01-10T05:34:56;94173.38;;;5.85;68.33
70127;BME280;57491;42.694;23.314;2023-01-10T05:37:23;94205.09;;;6.17;67.57
70127;BME280;57491;42.694;23.314;2023-01-10T05:39:50;94211.88;;;6.18;67.37
70127;BME280;57491;42.694;23.314;2023-01-10T05:42:18;94158.00;;;6.00;67.35
70127;BME280;57491;42.694;23.314;2023-01-10T05:44:45;94222.03;;;6.42;66.94
70127;BME280;57491;42.694;23.314;2023-01-10T05:47:12;94230.13;;;6.39;66.70
70127;BME280;57491;42.694;23.314;2023-01-10T05:49:39;94223.00;;;6.41;67.10
70127;BME280;57491;42.694;23.314;2023-01-10T05:52:07;94215.13;;;6.57;67.49
70127;BME280;57491;42.694;23.314;2023-01-10T05:54:35;94211.28;;;6.68;68.49
70127;BME280;57491;42.694;23.314;2023-01-10T05:57:02;94202.50;;;6.77;66.55
70127;BME280;57491;42.694;23.314;2023-01-10T05:59:29;94207.84;;;6.90;65.49
70127;BME280;57491;42.694;23.314;2023-01-10T06:01:56;94200.28;;;6.89;64.80
70127;BME280;57491;42.694;23.314;2023-01-10T06:04:23;94207.09;;;6.52;65.49
70127;BME280;57491;42.694;23.314;2023-01-10T06:06:51;94217.94;;;6.48;66.30
70127;BME280;57491;42.694;23.314;2023-01-10T06:09:19;94217.25;;;6.68;67.28
70127;BME280;57491;42.694;23.314;2023-01-10T06:11:46;94214.88;;;6.82;66.22
70127;BME280;57491;42.694;23.314;2023-01-10T06:14:13;94217.19;;;6.91;65.47
70127;BME280;57491;42.694;23.314;2023-01-10T06:16:43;94204.00;;;6.86;64.71
70127;BME280;57491;42.694;23.314;2023-01-10T06:19:10;94214.81;;;7.04;65.19
70127;BME280;57491;42.694;23.314;2023-01-10T06:21:38;94212.56;;;6.87;64.72
70127;BME280;57491;42.694;23.314;2023-01-10T06:24:05;94220.97;;;6.89;65.26
70127;BME280;57491;42.694;23.314;2023-01-10T06:26:34;94211.41;;;7.04;66.03
70127;BME280;57491;42.694;23.314;2023-01-10T06:29:01;94220.06;;;7.11;65.65
70127;BME280;57491;42.694;23.314;2023-01-10T06:31:28;94230.69;;;7.01;64.70
70127;BME280;57491;42.694;23.314;2023-01-10T06:33:55;94219.94;;;6.90;64.55
70127;BME280;57491;42.694;23.314;2023-01-10T06:36:22;94206.06;;;6.91;65.51
70127;BME280;57491;42.694;23.314;2023-01-10T06:38:49;94217.38;;;6.90;64.97
70127;BME280;57491;42.694;23.314;2023-01-10T06:41:16;94205.25;;;6.90;65.55
70127;BME280;57491;42.694;23.314;2023-01-10T06:43:46;94202.31;;;7.08;66.25
70127;BME280;57491;42.694;23.314;2023-01-10T06:46:14;94209.91;;;7.24;66.30
70127;BME280;57491;42.694;23.314;2023-01-10T06:48:42;94215.41;;;7.36;68.02
70127;BME280;57491;42.694;23.314;2023-01-10T06:51:10;94222.91;;;7.45;67.22
70127;BME280;57491;42.694;23.314;2023-01-10T06:53:37;94221.38;;;7.51;65.06
70127;BME280;57491;42.694;23.314;2023-01-10T06:56:06;94203.13;;;7.38;65.60
70127;BME280;57491;42.694;23.314;2023-01-10T06:58:34;94211.19;;;7.49;65.67
70127;BME280;57491;42.694;23.314;2023-01-10T07:01:05;94203.28;;;7.51;66.80
70127;BME280;57491;42.694;23.314;2023-01-10T07:03:32;94203.72;;;7.54;65.69
70127;BME280;57491;42.694;23.314;2023-01-10T07:06:00;94150.63;;;7.23;65.94
70127;BME280;57491;42.694;23.314;2023-01-10T07:08:28;94191.31;;;7.50;65.60
70127;BME280;57491;42.694;23.314;2023-01-10T07:10:56;94199.59;;;7.60;69.39
70127;BME280;57491;42.694;23.314;2023-01-10T07:13:24;94190.50;;;7.64;68.07
70127;BME280;57491;42.694;23.314;2023-01-10T07:15:51;94175.03;;;7.71;67.47
70127;BME280;57491;42.694;23.314;2023-01-10T07:18:19;94186.00;;;7.73;67.95
70127;BME280;57491;42.694;23.314;2023-01-10T07:20:47;94164.41;;;7.66;68.10
70127;BME280;57491;42.694;23.314;2023-01-10T07:23:15;94177.25;;;7.74;67.89
70127;BME280;57491;42.694;23.314;2023-01-10T07:25:42;94177.66;;;7.56;68.27
70127;BME280;57491;42.694;23.314;2023-01-10T07:28:09;94163.53;;;7.37;69.48
70127;BME280;57491;42.694;23.314;2023-01-10T07:30:36;94128.91;;;7.02;69.64
70127;BME280;57491;42.694;23.314;2023-01-10T07:33:03;94177.97;;;7.17;71.41
70127;BME280;57491;42.694;23.314;2023-01-10T07:35:32;94175.22;;;7.18;71.12
70127;BME280;57491;42.694;23.314;2023-01-10T07:37:59;94165.69;;;7.19;72.21
70127;BME280;57491;42.694;23.314;2023-01-10T07:40:28;94169.78;;;7.28;72.15
70127;BME280;57491;42.694;23.314;2023-01-10T07:42:55;94171.03;;;7.32;71.86
70127;BME280;57491;42.694;23.314;2023-01-10T07:45:23;94170.22;;;7.32;71.36
70127;BME280;57491;42.694;23.314;2023-01-10T07:47:55;94162.63;;;7.30;72.20
70127;BME280;57491;42.694;23.314;2023-01-10T07:50:22;94119.34;;;7.03;72.42
70127;BME280;57491;42.694;23.314;2023-01-10T07:52:51;94161.38;;;7.26;72.57
70127;BME280;57491;42.694;23.314;2023-01-10T07:55:18;94162.81;;;7.29;72.14
70127;BME280;57491;42.694;23.314;2023-01-10T07:57:45;94158.25;;;7.31;73.18
70127;BME280;57491;42.694;23.314;2023-01-10T08:00:13;94157.47;;;7.30;73.08
70127;BME280;57491;42.694;23.314;2023-01-10T08:02:40;94146.34;;;7.15;72.76
70127;BME280;57491;42.694;23.314;2023-01-10T08:05:09;94165.69;;;7.19;73.15
70127;BME280;57491;42.694;23.314;2023-01-10T08:07:36;94144.84;;;7.06;72.90
70127;BME280;57491;42.694;23.314;2023-01-10T08:10:06;94137.81;;;7.00;73.51
70127;BME280;57491;42.694;23.314;2023-01-10T08:12:33;94169.41;;;7.31;73.77
70127;BME280;57491;42.694;23.314;2023-01-10T08:15:00;94163.97;;;7.26;73.58
70127;BME280;57491;42.694;23.314;2023-01-10T08:17:27;94164.72;;;7.20;73.86
70127;BME280;57491;42.694;23.314;2023-01-10T08:19:54;94159.28;;;7.15;74.08
70127;BME280;57491;42.694;23.314;2023-01-10T08:22:22;94160.78;;;7.24;73.85
70127;BME280;57491;42.694;23.314;2023-01-10T08:24:49;94154.97;;;7.22;73.79
70127;BME280;57491;42.694;23.314;2023-01-10T08:27:18;94152.94;;;7.17;74.23
70127;BME280;57491;42.694;23.314;2023-01-10T08:29:45;94135.38;;;7.13;74.35
70127;BME280;57491;42.694;23.314;2023-01-10T08:32:12;94133.06;;;7.18;74.05
70127;BME280;57491;42.694;23.314;2023-01-10T08:34:39;94123.53;;;7.18;74.14
70127;BME280;57491;42.694;23.314;2023-01-10T08:37:09;94096.34;;;7.08;74.28
70127;BME280;57491;42.694;23.314;2023-01-10T08:39:37;94113.19;;;7.04;74.11
70127;BME280;57491;42.694;23.314;2023-01-10T08:42:04;94115.06;;;7.10;73.66
70127;BME280;57491;42.694;23.314;2023-01-10T08:44:32;94109.16;;;7.16;74.73
70127;BME280;57491;42.694;23.314;2023-01-10T08:46:59;94117.44;;;7.26;74.77
70127;BME280;57491;42.694;23.314;2023-01-10T08:49:27;94092.50;;;7.18;74.62
70127;BME280;57491;42.694;23.314;2023-01-10T08:51:54;94116.22;;;7.43;74.00
70127;BME280;57491;42.694;23.314;2023-01-10T08:54:21;94115.09;;;7.46;73.17
70127;BME280;57491;42.694;23.314;2023-01-10T08:56:48;94097.56;;;7.48;73.31
70127;BME280;57491;42.694;23.314;2023-01-10T08:59:15;94062.16;;;7.27;71.77
70127;BME280;57491;42.694;23.314;2023-01-10T09:01:44;94112.81;;;7.57;72.36
70127;BME280;57491;42.694;23.314;2023-01-10T09:04:11;94110.50;;;7.48;71.35
70127;BME280;57491;42.694;23.314;2023-01-10T09:06:38;94108.59;;;7.56;73.76
70127;BME280;57491;42.694;23.314;2023-01-10T09:09:05;94115.75;;;7.76;73.30
70127;BME280;57491;42.694;23.314;2023-01-10T09:11:32;94101.00;;;7.70;71.64
70127;BME280;57491;42.694;23.314;2023-01-10T09:13:59;94093.25;;;7.70;71.16
70127;BME280;57491;42.694;23.314;2023-01-10T09:16:26;94108.97;;;7.75;71.50
70127;BME280;57491;42.694;23.314;2023-01-10T09:18:54;94093.72;;;7.58;71.04
70127;BME280;57491;42.694;23.314;2023-01-10T09:21:21;94108.50;;;7.65;70.71
70127;BME280;57491;42.694;23.314;2023-01-10T09:23:49;94099.75;;;7.66;71.37
70127;BME280;57491;42.694;23.314;2023-01-10T09:26:16;94106.59;;;7.73;71.59
70127;BME280;57491;42.694;23.314;2023-01-10T09:28:43;94105.00;;;7.72;70.99
70127;BME280;57491;42.694;23.314;2023-01-10T09:31:10;94101.34;;;7.67;71.50
70127;BME280;57491;42.694;23.314;2023-01-10T09:33:37;94068.34;;;7.47;72.25
70127;BME280;57491;42.694;23.314;2023-01-10T09:36:07;94098.63;;;7.75;71.50
70127;BME280;57491;42.694;23.314;2023-01-10T09:38:35;94093.09;;;7.78;72.10
70127;BME280;57491;42.694;23.314;2023-01-10T09:41:20;94078.81;;;7.82;71.31
70127;BME280;57491;42.694;23.314;2023-01-10T09:43:57;94071.44;;;7.79;71.76
70127;BME280;57491;42.694;23.314;2023-01-10T09:46:36;94057.19;;;7.68;72.03
70127;BME280;57491;42.694;23.314;2023-01-10T09:49:12;94035.19;;;7.57;71.57
70127;BME280;57491;42.694;23.314;2023-01-10T09:51:44;94048.00;;;7.66;71.78
70127;BME280;57491;42.694;23.314;2023-01-10T09:54:16;94064.03;;;7.76;72.12
70127;BME280;57491;42.694;23.314;2023-01-10T09:56:46;94063.28;;;7.82;71.63
70127;BME280;57491;42.694;23.314;2023-01-10T09:59:14;94060.44;;;7.77;71.48
70127;BME280;57491;42.694;23.314;2023-01-10T10:01:45;94017.53;;;7.61;71.54
70127;BME280;57491;42.694;23.314;2023-01-10T10:04:22;94042.59;;;7.82;71.67
70127;BME280;57491;42.694;23.314;2023-01-10T10:06:54;94041.34;;;7.78;71.28
70127;BME280;57491;42.694;23.314;2023-01-10T10:09:23;94007.94;;;7.55;71.82
70127;BME280;57491;42.694;23.314;2023-01-10T10:12:02;94039.13;;;7.75;72.52
70127;BME280;57491;42.694;23.314;2023-01-10T10:14:44;94037.41;;;7.82;72.59
70127;BME280;57491;42.694;23.314;2023-01-10T10:17:27;94051.31;;;7.81;72.54
70127;BME280;57491;42.694;23.314;2023-01-10T10:20:03;94046.53;;;7.78;71.73
70127;BME280;57491;42.694;23.314;2023-01-10T10:22:45;94047.34;;;7.78;71.73
70127;BME280;57491;42.694;23.314;2023-01-10T10:25:26;94042.81;;;7.87;72.65
70127;BME280;57491;42.694;23.314;2023-01-10T10:28:25;94041.47;;;7.91;72.07
70127;BME280;57491;42.694;23.314;2023-01-10T10:31:02;94036.28;;;7.91;71.30
70127;BME280;57491;42.694;23.314;2023-01-10T10:33:46;94028.00;;;8.02;73.31
70127;BME280;57491;42.694;23.314;2023-01-10T10:36:20;94027.25;;;8.08;71.87
70127;BME280;57491;42.694;23.314;2023-01-10T10:38:52;94010.09;;;8.07;71.85
70127;BME280;57491;42.694;23.314;2023-01-10T10:41:28;94005.56;;;8.09;72.49
70127;BME280;57491;42.694;23.314;2023-01-10T10:43:59;94026.13;;;8.17;71.89
70127;BME280;57491;42.694;23.314;2023-01-10T10:46:30;94017.13;;;8.13;71.66
70127;BME280;57491;42.694;23.314;2023-01-10T10:49:02;94007.34;;;8.08;70.81
70127;BME280;57491;42.694;23.314;2023-01-10T10:51:37;94001.81;;;8.18;74.04
70127;BME280;57491;42.694;23.314;2023-01-10T10:54:10;94008.47;;;8.27;71.08
70127;BME280;57491;42.694;23.314;2023-01-10T10:56:38;94002.41;;;8.20;71.45
70127;BME280;57491;42.694;23.314;2023-01-10T10:59:05;94002.63;;;8.19;71.81
70127;BME280;57491;42.694;23.314;2023-01-10T11:01:33;94006.03;;;8.19;71.29
70127;BME280;57491;42.694;23.314;2023-01-10T11:04:02;94013.31;;;8.09;70.73
70127;BME280;57491;42.694;23.314;2023-01-10T11:06:37;93970.53;;;7.79;71.86
70127;BME280;57491;42.694;23.314;2023-01-10T11:09:06;94016.88;;;8.08;72.69
70127;BME280;57491;42.694;23.314;2023-01-10T11:11:36;94000.94;;;8.04;71.79
70127;BME280;57491;42.694;23.314;2023-01-10T11:14:06;93995.34;;;8.01;72.83
70127;BME280;57491;42.694;23.314;2023-01-10T11:16:38;93975.72;;;7.85;73.50
70127;BME280;57491;42.694;23.314;2023-01-10T11:19:14;93990.53;;;7.98;72.66
70127;BME280;57491;42.694;23.314;2023-01-10T11:21:45;93986.22;;;8.05;72.92
70127;BME280;57491;42.694;23.314;2023-01-10T11:24:26;93989.47;;;8.14;73.91
70127;BME280;57491;42.694;23.314;2023-01-10T11:26:57;93964.94;;;8.10;74.38
70127;BME280;57491;42.694;23.314;2023-01-10T11:29:26;93980.13;;;8.19;72.62
70127;BME280;57491;42.694;23.314;2023-01-10T11:31:56;93966.34;;;8.12;72.02
70127;BME280;57491;42.694;23.314;2023-01-10T11:34:25;93984.63;;;8.04;72.09
70127;BME280;57491;42.694;23.314;2023-01-10T11:36:54;93986.97;;;7.99;73.10
70127;BME280;57491;42.694;23.314;2023-01-10T11:39:22;93990.75;;;7.96;74.54
70127;BME280;57491;42.694;23.314;2023-01-10T11:41:49;93987.44;;;8.09;74.29
70127;BME280;57491;42.694;23.314;2023-01-10T11:44:22;93985.91;;;8.21;74.97
70127;BME280;57491;42.694;23.314;2023-01-10T11:46:54;93969.16;;;8.17;73.75
70127;BME280;57491;42.694;23.314;2023-01-10T11:49:28;93983.25;;;8.42;74.75
70127;BME280;57491;42.694;23.314;2023-01-10T11:51:59;93967.94;;;8.47;75.16
70127;BME280;57491;42.694;23.314;2023-01-10T11:54:30;93975.97;;;8.66;73.59
70127;BME280;57491;42.694;23.314;2023-01-10T11:57:01;93984.16;;;8.69;72.07
70127;BME280;57491;42.694;23.314;2023-01-10T11:59:30;93973.22;;;8.67;70.67
70127;BME280;57491;42.694;23.314;2023-01-10T12:01:59;93969.44;;;8.76;71.19
70127;BME280;57491;42.694;23.314;2023-01-10T12:04:31;93973.66;;;8.84;72.26
70127;BME280;57491;42.694;23.314;2023-01-10T12:07:05;93960.91;;;8.82;70.96
70127;BME280;57491;42.694;23.314;2023-01-10T12:09:37;93971.91;;;8.98;70.85
70127;BME280;57491;42.694;23.314;2023-01-10T12:12:14;93987.63;;;8.96;73.51
70127;BME280;57491;42.694;23.314;2023-01-10T12:14:43;93968.50;;;8.97;72.86
70127;BME280;57491;42.694;23.314;2023-01-10T12:17:20;93974.84;;;8.88;69.97
70127;BME280;57491;42.694;23.314;2023-01-10T12:19:48;93970.44;;;8.75;70.53
70127;BME280;57491;42.694;23.314;2023-01-10T12:22:18;93959.00;;;8.57;70.86
70127;BME280;57491;42.694;23.314;2023-01-10T12:24:48;93981.38;;;8.64;70.92
70127;BME280;57491;42.694;23.314;2023-01-10T12:27:17;93941.03;;;8.42;71.12
70127;BME280;57491;42.694;23.314;2023-01-10T12:29:50;93987.19;;;8.73;70.81
70127;BME280;57491;42.694;23.314;2023-01-10T12:32:22;93929.44;;;8.38;70.47
70127;BME280;57491;42.694;23.314;2023-01-10T12:34:56;93987.41;;;8.78;71.24
70127;BME280;57491;42.694;23.314;2023-01-10T12:37:33;93974.38;;;8.65;70.87
70127;BME280;57491;42.694;23.314;2023-01-10T12:40:10;93968.03;;;8.74;72.13
70127;BME280;57491;42.694;23.314;2023-01-10T12:42:46;93969.28;;;8.84;72.37
70127;BME280;57491;42.694;23.314;2023-01-10T12:45:39;93971.50;;;8.94;71.53
70127;BME280;57491;42.694;23.314;2023-01-10T12:48:13;93950.94;;;8.86;73.09
70127;BME280;57491;42.694;23.314;2023-01-10T12:50:46;93955.94;;;8.94;70.59
70127;BME280;57491;42.694;23.314;2023-01-10T12:53:26;93949.88;;;8.74;69.96
70127;BME280;57491;42.694;23.314;2023-01-10T12:55:56;93974.81;;;8.75;69.98
70127;BME280;57491;42.694;23.314;2023-01-10T12:58:33;93977.19;;;8.63;70.84
70127;BME280;57491;42.694;23.314;2023-01-10T13:01:04;93967.75;;;8.56;71.04
70127;BME280;57491;42.694;23.314;2023-01-10T13:03:33;93949.41;;;8.44;72.86
70127;BME280;57491;42.694;23.314;2023-01-10T13:06:00;93979.38;;;8.60;71.89
70127;BME280;57491;42.694;23.314;2023-01-10T13:08:31;93984.91;;;8.57;72.41
70127;BME280;57491;42.694;23.314;2023-01-10T13:11:00;93971.50;;;8.40;72.45
70127;BME280;57491;42.694;23.314;2023-01-10T13:13:32;93983.47;;;8.47;71.46
70127;BME280;57491;42.694;23.314;2023-01-10T13:16:15;93975.34;;;8.50;71.83
70127;BME280;57491;42.694;23.314;2023-01-10T13:19:21;93966.94;;;8.42;72.47